KLNL

Kings Land O' Lakes Airport

Land O' Lakes, Wisconsin, USA
METAR KLNL 181935Z AUTO 22004KT 7SM OVC008 M01/M02 A2967 RMK AO2 T10061020
Observed Flight Rules
Dec-18 @ 19:35 UTC (35 minutes ago) Instrument Flight Rules
Wind Visibility Clouds
220° at 4 knots 7 miles
  • Overcast at 800' AGL
Temperatures Readings
Current -1°C / 30°F
Dewpoint -2°C / 28°F
Humidity 93%
Altimeter 29.67" Hg
Pressure 1005 hPa
Elevation 520
METAR KLNL 181935Z AUTO 22004KT 7SM OVC008 M01/M02 A2967 RMK AO2 T10061020
Observed Flight Rules
Dec-18 @ 19:35 UTC
(35 minutes ago)
IFR
Wind Visibility
220° at 4 knots 7 miles
Clouds
  • Overcast at 800' AGL
Temperature Dewpoint
-1°C / 30°F -2°C / 28°F
Humidity Altimeter Pressure
93% 29.67" Hg 1005 hPa